Aviation Digital Data Service (ADDS)

Output produced by METARs form (0613 UTC 19 March 2019)
found at http://www.aviationweather.gov/metar/data/
 
OSLK 190600Z 04004KT 9999 FEW030 16/10 Q1019
OSLK 190600Z 1906/2006 33008KT 9999 SCT030 
     BECMG 1920/1922 04005KT CAVOK
       
OSDI 190600Z 34006KT 0200 FG 06/05 Q1020
OSDI 190600Z 1906/2012 22010KT 8000 FEW030 
     BECMG 2000/2002 VRB03KT 3000 BR 
     TEMPO 2002/2006 0200 FG 
     BECMG 2008/2010 20010KT 8000 FEW030
       
OSKL 190600Z 07008KT 9999 SCT026 BKN100 09/06 Q1019